»·PEaware :: UAL1942 KLAX-KDEN

UAL1942 :: KLAX-KDEN

FLIGHT INFORMATION

Flight Status: Arrived
Operator:
United Airlines
More flights by this operator :: More flights under this callsign
Pilot: Thomas C. (28508)
Aircraft: BOEING 777-200
(B772)
More flights by this aircraft type
Origin: KLAX Los Angeles Intl
United States
Destination: KDEN Denver Intl
United States
More flights between these airports :: More routes between these airports
Route: +BUMMP SSKII1
File this flight plan on PilotEdge
Remarks: PBN / A1B1C1D1L1O1S2 NAV / RNVD1E2A1 DOF / 200422 REG / N217UA EET / KZLC0044 KZDV0057 SEL / QREJ OPR / UAL PER / D RMK / TCAS
Altitude:
(Current/Filed)
41,000ft
Speed:
(Current/Filed)
485kts
Departed: 21-Apr-20 05:18 PM
Arrived: 21-Apr-20 07:02 PM
Distance/Time
Traveled:
747nm/1:44
Distance/Time
To Go:
Arrived

Flight Plot

Page will automatically refresh every two minutes.

Flight plan parsing failed; only flown route is shown


Map Options




Map Legend


Flown Route
Filed Route
Departure Airport
Arrival Airport
Navaid (VOR, NDB)
Fix

Horizontal Profiles

Position Reports

Time Latitude Longitude Heading Altitude Ground
Speed
21-Apr-20 16:40 33.940673 -118.400191 80 131ft 0kts
21-Apr-20 16:41 33.940673 -118.400191 80 131ft 0kts
21-Apr-20 16:42 33.940673 -118.400191 80 131ft 0kts
21-Apr-20 16:43 33.940673 -118.400191 80 131ft 0kts
21-Apr-20 16:44 33.940673 -118.400191 80 132ft 0kts
21-Apr-20 16:45 33.940673 -118.400191 80 131ft 0kts
21-Apr-20 16:46 33.940673 -118.400191 80 131ft 0kts
21-Apr-20 16:47 33.940673 -118.400191 80 131ft 0kts
21-Apr-20 16:48 33.940673 -118.400191 80 131ft 0kts
21-Apr-20 16:49 33.940673 -118.400191 80 131ft 0kts
21-Apr-20 16:50 33.940673 -118.400191 80 131ft 0kts
21-Apr-20 16:51 33.940673 -118.400191 80 131ft 0kts
21-Apr-20 16:52 33.940673 -118.400191 80 131ft 0kts
21-Apr-20 16:53 33.940673 -118.400191 80 131ft 0kts
21-Apr-20 16:54 33.940673 -118.400191 80 131ft 0kts
21-Apr-20 16:55 33.940673 -118.400191 80 131ft 0kts
21-Apr-20 16:56 33.940673 -118.400191 80 131ft 0kts
21-Apr-20 16:57 33.940673 -118.400191 80 131ft 0kts
21-Apr-20 16:58 33.940673 -118.400191 80 131ft 0kts
21-Apr-20 16:59 33.940673 -118.400191 80 131ft 0kts
21-Apr-20 17:00 33.940673 -118.400191 80 132ft 0kts
21-Apr-20 17:01 33.940673 -118.400191 80 132ft 0kts
21-Apr-20 17:02 33.940738 -118.400713 155 132ft 2kts
21-Apr-20 17:03 33.940850 -118.400751 174 132ft 0kts
21-Apr-20 17:04 33.940850 -118.400751 174 132ft 0kts
21-Apr-20 17:05 33.940850 -118.400751 174 132ft 0kts
21-Apr-20 17:06 33.940850 -118.400751 174 132ft 0kts
21-Apr-20 17:07 33.940849 -118.400751 174 132ft 0kts
21-Apr-20 17:08 33.939792 -118.398120 83 128ft 19kts
21-Apr-20 17:09 33.940583 -118.389747 86 117ft 21kts
21-Apr-20 17:10 33.940716 -118.383330 141 114ft 9kts
21-Apr-20 17:11 33.940783 -118.380443 82 112ft 0kts
21-Apr-20 17:12 33.940783 -118.380443 82 112ft 0kts
21-Apr-20 17:13 33.940783 -118.380443 82 112ft 0kts
21-Apr-20 17:14 33.939809 -118.380599 261 112ft 0kts
21-Apr-20 17:15 33.939809 -118.380599 261 112ft 0kts
21-Apr-20 17:16 33.939809 -118.380599 261 112ft 0kts
21-Apr-20 17:17 33.936675 -118.411004 262 1214ft 166kts
21-Apr-20 17:18 33.924378 -118.481438 249 4328ft 266kts
21-Apr-20 17:19 33.874003 -118.536980 162 8543ft 281kts
21-Apr-20 17:20 33.861362 -118.457007 32 12246ft 298kts
21-Apr-20 17:21 33.948094 -118.416514 35 14899ft 376kts
21-Apr-20 17:22 34.008165 -118.304279 55 17055ft 415kts
21-Apr-20 17:23 34.073990 -118.184045 51 21120ft 439kts
21-Apr-20 17:24 34.145412 -118.057484 51 24587ft 468kts
21-Apr-20 17:25 34.221254 -117.922703 51 27842ft 494kts
21-Apr-20 17:26 34.299959 -117.782265 51 30728ft 515kts
21-Apr-20 17:27 34.382235 -117.638807 49 34143ft 519kts
21-Apr-20 17:28 34.466242 -117.497948 49 37388ft 518kts
21-Apr-20 17:29 34.550859 -117.355533 49 39766ft 524kts
21-Apr-20 17:30 34.635959 -117.211700 50 41118ft 523kts
21-Apr-20 17:31 34.720410 -117.068385 50 41074ft 522kts
21-Apr-20 17:32 34.804859 -116.924501 50 41075ft 522kts
21-Apr-20 17:33 34.888813 -116.780884 50 41076ft 522kts
21-Apr-20 17:34 34.981405 -116.646839 42 41077ft 516kts
21-Apr-20 17:35 35.078815 -116.518346 42 41079ft 516kts
21-Apr-20 17:36 35.169145 -116.398794 42 41082ft 516kts
21-Apr-20 17:37 35.264660 -116.271912 42 41073ft 516kts
21-Apr-20 17:38 35.361685 -116.142537 43 41074ft 516kts
21-Apr-20 17:39 35.458703 -116.012676 43 41075ft 516kts
21-Apr-20 17:40 35.555484 -115.882633 43 41049ft 516kts
21-Apr-20 17:41 35.651806 -115.752293 43 41050ft 517kts
21-Apr-20 17:42 35.747590 -115.620562 43 41051ft 517kts
21-Apr-20 17:44 35.843353 -115.488346 43 41053ft 517kts
21-Apr-20 17:45 35.938579 -115.356356 43 41054ft 517kts
21-Apr-20 17:46 36.034698 -115.222610 44 41045ft 517kts
21-Apr-20 17:47 36.123607 -115.081572 51 41048ft 522kts
21-Apr-20 17:48 36.206829 -114.933344 51 41021ft 521kts
21-Apr-20 17:49 36.289254 -114.785732 51 41023ft 521kts
21-Apr-20 17:50 36.371516 -114.637767 51 41025ft 521kts
21-Apr-20 17:51 36.453738 -114.489228 51 41026ft 521kts
21-Apr-20 17:52 36.535368 -114.341117 52 41053ft 521kts
21-Apr-20 17:53 36.616996 -114.192361 52 41046ft 521kts
21-Apr-20 17:54 36.698576 -114.043037 52 41047ft 521kts
21-Apr-20 17:55 36.779888 -113.893545 52 41049ft 521kts
21-Apr-20 17:56 36.860907 -113.743932 52 41050ft 521kts
21-Apr-20 17:57 36.941510 -113.594425 52 41051ft 521kts
21-Apr-20 17:58 37.022070 -113.444330 52 41052ft 520kts
21-Apr-20 17:59 37.101582 -113.295548 53 41124ft 521kts
21-Apr-20 18:00 37.182361 -113.143684 53 41128ft 520kts
21-Apr-20 18:01 37.262619 -112.992130 53 41103ft 520kts
21-Apr-20 18:02 37.342315 -112.840953 53 41130ft 520kts
21-Apr-20 18:02 37.408548 -112.714789 53 41162ft 519kts
21-Apr-20 18:04 37.501225 -112.537448 53 41187ft 519kts
21-Apr-20 18:05 37.580181 -112.385605 53 41188ft 518kts
21-Apr-20 18:06 37.660816 -112.237035 46 41181ft 515kts
21-Apr-20 18:06 37.735026 -112.119633 48 41182ft 515kts
21-Apr-20 18:08 37.838525 -111.953294 48 41182ft 515kts
21-Apr-20 18:09 37.926714 -111.810854 48 41183ft 514kts
21-Apr-20 18:09 37.999889 -111.692181 48 41185ft 514kts
21-Apr-20 18:10 38.087636 -111.549311 48 41186ft 513kts
21-Apr-20 18:11 38.174370 -111.407498 48 41193ft 513kts
21-Apr-20 18:12 38.236430 -111.244643 79 41184ft 523kts
21-Apr-20 18:13 38.231213 -111.060927 94 41183ft 525kts
21-Apr-20 18:14 38.220893 -110.875752 93 41184ft 525kts
21-Apr-20 18:15 38.210725 -110.690608 93 41186ft 525kts
21-Apr-20 18:16 38.200304 -110.505667 93 41187ft 525kts
21-Apr-20 18:17 38.189673 -110.322154 94 41182ft 525kts
21-Apr-20 18:18 38.178628 -110.136763 94 41182ft 526kts
21-Apr-20 18:19 38.167331 -109.951960 94 41111ft 527kts
21-Apr-20 18:20 38.155705 -109.766591 94 41052ft 526kts
21-Apr-20 18:21 38.143785 -109.581214 94 41159ft 527kts
21-Apr-20 18:22 38.131532 -109.395276 94 41161ft 528kts
21-Apr-20 18:23 38.119133 -109.211625 95 41154ft 528kts
21-Apr-20 18:24 38.106378 -109.025968 94 41157ft 529kts
21-Apr-20 18:25 38.124988 -108.842860 64 41159ft 525kts
21-Apr-20 18:26 38.198832 -108.684810 59 41162ft 524kts
21-Apr-20 18:27 38.264599 -108.519073 60 41160ft 524kts
21-Apr-20 18:28 38.328953 -108.353412 61 41161ft 524kts
21-Apr-20 18:29 38.391974 -108.190224 61 41154ft 524kts
21-Apr-20 18:30 38.455986 -108.023574 61 41075ft 523kts
21-Apr-20 18:31 38.519124 -107.856733 62 41076ft 523kts
21-Apr-20 18:32 38.582022 -107.689512 62 41077ft 523kts
21-Apr-20 18:33 38.644904 -107.521399 62 41079ft 523kts
21-Apr-20 18:34 38.707985 -107.354495 61 41124ft 522kts
21-Apr-20 18:35 38.770749 -107.188014 62 41127ft 523kts
21-Apr-20 18:36 38.833689 -107.020142 62 41074ft 522kts
21-Apr-20 18:37 38.896213 -106.852426 62 41076ft 522kts
21-Apr-20 18:38 38.958883 -106.683437 62 40447ft 523kts
21-Apr-20 18:39 39.019838 -106.517816 62 38513ft 505kts
21-Apr-20 18:40 39.078898 -106.356156 63 36191ft 496kts
21-Apr-20 18:41 39.136497 -106.197594 64 33946ft 485kts
21-Apr-20 18:42 39.192652 -106.042336 64 31772ft 472kts
21-Apr-20 18:43 39.247197 -105.890783 65 29722ft 463kts
21-Apr-20 18:44 39.301391 -105.739309 65 27562ft 469kts
21-Apr-20 18:45 39.349868 -105.605102 64 25829ft 388kts
21-Apr-20 18:46 39.394215 -105.483312 63 22610ft 370kts
21-Apr-20 18:47 39.443953 -105.371565 53 20655ft 350kts
21-Apr-20 18:48 39.499555 -105.268956 53 18938ft 342kts
21-Apr-20 18:49 39.553917 -105.168930 56 16498ft 335kts
21-Apr-20 18:50 39.604811 -105.074199 57 15632ft 303kts
21-Apr-20 18:51 39.651716 -104.986629 55 14556ft 288kts
21-Apr-20 18:52 39.697361 -104.901559 53 13194ft 286kts
21-Apr-20 18:53 39.755021 -104.838089 11 12690ft 267kts
21-Apr-20 18:54 39.829459 -104.841109 359 11276ft 263kts
21-Apr-20 18:55 39.884326 -104.796836 76 8795ft 241kts
21-Apr-20 18:56 39.908088 -104.729984 1 7227ft 191kts
21-Apr-20 18:57 39.955276 -104.731508 35 6737ft 146kts
21-Apr-20 18:58 39.944618 -104.689829 137 6293ft 136kts
21-Apr-20 18:59 39.907586 -104.686618 179 5603ft 137kts
21-Apr-20 19:00 39.880179 -104.687004 180 5372ft 51kts
21-Apr-20 19:01 39.874242 -104.684944 179 5366ft 13kts
21-Apr-20 19:02 39.868449 -104.685000 180 5369ft 25kts
21-Apr-20 19:03 39.861562 -104.685077 179 5382ft 16kts
21-Apr-20 19:04 39.856871 -104.683943 89 5382ft 16kts
21-Apr-20 19:05 39.856665 -104.677270 90 5388ft 21kts
21-Apr-20 19:06 39.857925 -104.672786 359 5388ft 3kts
21-Apr-20 19:07 39.858031 -104.672785 359 5388ft 0kts
21-Apr-20 19:08 39.858031 -104.672785 359 5388ft 0kts
21-Apr-20 19:09 39.858031 -104.672785 359 5388ft 0kts
21-Apr-20 19:10 39.858031 -104.672785 359 5388ft 0kts
21-Apr-20 19:11 39.858031 -104.672785 359 5388ft 0kts
21-Apr-20 19:12 39.858031 -104.672785 359 5388ft 0kts
21-Apr-20 19:13 39.858031 -104.672785 359 5388ft 0kts
21-Apr-20 19:14 39.858031 -104.672785 359 5388ft 0kts
21-Apr-20 19:15 39.858031 -104.672785 359 5388ft 0kts

Navigation Log

Ident Type
Flight plan parsing failed, navigation log unavailable